createdAt,value
2023-01-25T00:03:36.931Z,102015.13
2023-01-25T00:08:38.509Z,102007.94
2023-01-25T00:13:39.881Z,102010.13
2023-01-25T00:18:41.258Z,102006.91
2023-01-25T00:23:42.643Z,102004.19
2023-01-25T00:28:48.270Z,101994.91
2023-01-25T00:33:51.221Z,101997.22
2023-01-25T00:38:53.470Z,101997.47
2023-01-25T00:43:54.892Z,102003.34
2023-01-25T00:48:56.349Z,101998.50
2023-01-25T00:53:57.713Z,101994.09
2023-01-25T00:58:59.111Z,101998.03
2023-01-25T01:04:00.494Z,101990.50
2023-01-25T01:09:02.094Z,101987.56
2023-01-25T01:14:03.467Z,101989.19
2023-01-25T01:19:04.850Z,101979.28
2023-01-25T01:24:06.513Z,101982.31
2023-01-25T01:29:10.248Z,101965.66
2023-01-25T01:34:13.171Z,101957.28
2023-01-25T01:39:14.614Z,101951.34
2023-01-25T01:44:22.396Z,101937.88
2023-01-25T01:49:27.582Z,101936.19
2023-01-25T01:54:43.535Z,101933.47
2023-01-25T02:00:03.774Z,101921.25
2023-01-25T02:05:06.163Z,101917.69
2023-01-25T02:10:09.835Z,101910.09
2023-01-25T02:15:11.773Z,101913.25
2023-01-25T02:20:33.013Z,101915.16
2023-01-25T02:25:34.649Z,101899.16
2023-01-25T02:30:36.022Z,101889.69
2023-01-25T02:35:44.433Z,101897.91
2023-01-25T02:40:48.813Z,101893.28
2023-01-25T02:45:52.648Z,101878.75
2023-01-25T02:50:54.087Z,101874.31
2023-01-25T02:55:55.522Z,101871.97
2023-01-25T03:00:56.894Z,101861.94
2023-01-25T03:05:58.407Z,101862.53
2023-01-25T03:11:00.624Z,101864.00
2023-01-25T03:16:06.823Z,101864.00
2023-01-25T03:21:09.839Z,101867.59
2023-01-25T03:26:19.207Z,101866.16
2023-01-25T03:31:20.751Z,101859.84
2023-01-25T03:36:22.320Z,101853.72
2023-01-25T03:41:23.772Z,101853.72
2023-01-25T03:46:25.505Z,101854.97
2023-01-25T03:51:26.976Z,101852.81
2023-01-25T03:56:28.359Z,101842.13
2023-01-25T04:01:29.771Z,101841.94
2023-01-25T04:06:31.198Z,101849.91
2023-01-25T04:11:32.627Z,101835.22
2023-01-25T04:16:36.060Z,101838.97
2023-01-25T04:21:37.558Z,101834.75
2023-01-25T04:26:38.947Z,101834.75
2023-01-25T04:31:40.355Z,101832.03
2023-01-25T04:36:41.803Z,101827.19
2023-01-25T04:41:44.757Z,101834.31
2023-01-25T04:46:46.256Z,101832.66
2023-01-25T04:51:47.658Z,101834.75
2023-01-25T04:56:49.051Z,101826.56
2023-01-25T05:01:50.447Z,101828.84
2023-01-25T05:06:51.826Z,101827.19
2023-01-25T05:11:53.312Z,101821.88
2023-01-25T05:16:54.724Z,101823.19
2023-01-25T05:21:59.016Z,101815.38
2023-01-25T05:27:00.584Z,101823.19
2023-01-25T05:32:15.287Z,101814.13
2023-01-25T05:37:18.281Z,101805.53
2023-01-25T05:42:19.689Z,101803.00
2023-01-25T05:47:21.094Z,101796.47
2023-01-25T05:52:22.520Z,101795.03
2023-01-25T05:57:23.942Z,101787.84
2023-01-25T06:02:25.480Z,101788.97
2023-01-25T06:07:26.963Z,101788.78
2023-01-25T06:12:29.543Z,101785.19
2023-01-25T06:17:31.666Z,101781.84
2023-01-25T06:22:33.045Z,101787.94
2023-01-25T06:27:34.431Z,101791.06
2023-01-25T06:32:35.797Z,101787.00
2023-01-25T06:37:37.183Z,101793.56
2023-01-25T06:42:38.578Z,101786.78
2023-01-25T06:47:40.302Z,101779.44
2023-01-25T06:52:41.734Z,101784.25
2023-01-25T06:57:43.098Z,101779.88
2023-01-25T07:02:44.520Z,101782.16
2023-01-25T07:07:46.446Z,101783.06
2023-01-25T07:12:47.830Z,101767.84
2023-01-25T07:17:49.218Z,101763.31
2023-01-25T07:22:50.680Z,101760.34
2023-01-25T07:27:52.058Z,101742.72
2023-01-25T07:32:54.089Z,101746.53
2023-01-25T07:37:55.638Z,101742.94
2023-01-25T07:42:57.095Z,101740.22
2023-01-25T07:47:58.894Z,101728.63
2023-01-25T07:53:00.443Z,101728.19
2023-01-25T07:58:01.883Z,101724.81
2023-01-25T08:03:03.276Z,101712.63
2023-01-25T08:08:04.750Z,101707.81
2023-01-25T08:13:06.788Z,101713.72
2023-01-25T08:18:08.197Z,101707.19
2023-01-25T08:23:09.622Z,101702.13
2023-01-25T08:28:11.029Z,101703.16
2023-01-25T08:33:12.437Z,101710.13
2023-01-25T08:38:13.817Z,101710.34
2023-01-25T08:43:15.231Z,101703.81
2023-01-25T08:48:16.666Z,101702.97
2023-01-25T08:53:18.099Z,101697.06
2023-01-25T08:58:21.867Z,101698.97
2023-01-25T09:03:23.350Z,101690.53
2023-01-25T09:08:24.763Z,101687.16
2023-01-25T09:13:26.176Z,101686.16
2023-01-25T09:18:28.759Z,101688.44
2023-01-25T09:23:31.638Z,101679.59
2023-01-25T09:28:33.262Z,101677.50
2023-01-25T09:33:35.678Z,101668.88
2023-01-25T09:38:37.083Z,101660.44
2023-01-25T09:43:45.653Z,101667.41
2023-01-25T09:49:09.126Z,101664.25
2023-01-25T09:54:13.324Z,101658.34
2023-01-25T09:59:16.484Z,101655.38
2023-01-25T10:04:19.268Z,101665.72
2023-01-25T10:09:39.340Z,101653.09
2023-01-25T10:14:40.747Z,101648.88
2023-01-25T10:20:07.939Z,101657.53
2023-01-25T10:25:27.537Z,101639.63
2023-01-25T10:30:30.743Z,101630.34
2023-01-25T10:35:39.036Z,101634.34
2023-01-25T10:40:45.533Z,101621.28
2023-01-25T10:45:48.013Z,101613.31
2023-01-25T10:50:51.238Z,101596.88
2023-01-25T10:56:10.921Z,101587.41
2023-01-25T11:01:25.314Z,101585.28
2023-01-25T11:06:33.918Z,101577.50
2023-01-25T11:11:36.261Z,101567.41
2023-01-25T11:16:38.805Z,101565.94
2023-01-25T11:21:40.338Z,101562.13
2023-01-25T11:26:41.858Z,101546.97
2023-01-25T11:31:50.433Z,101545.72
2023-01-25T11:37:19.248Z,101537.28
2023-01-25T11:42:46.488Z,101528.66
2023-01-25T11:47:59.426Z,101509.94
2023-01-25T11:53:42.234Z,101508.22
2023-01-25T11:59:08.878Z,101504.03
2023-01-25T12:04:23.908Z,101488.47
2023-01-25T12:09:44.352Z,101474.53
2023-01-25T12:14:58.903Z,101452.47
2023-01-25T12:20:21.468Z,101439.84
2023-01-25T12:25:30.083Z,101431.84
2023-01-25T12:30:51.761Z,101426.78
2023-01-25T12:35:54.869Z,101413.91
2023-01-25T12:41:04.224Z,101409.09
2023-01-25T12:46:13.321Z,101401.72
2023-01-25T12:51:15.143Z,101394.56
2023-01-25T12:56:28.981Z,101384.47
2023-01-25T13:01:35.042Z,101382.56
2023-01-25T13:06:50.647Z,101390.97
2023-01-25T13:11:51.908Z,101367.19
2023-01-25T13:17:09.306Z,101357.94
2023-01-25T13:22:11.733Z,101353.69
2023-01-25T13:27:29.459Z,101345.69
2023-01-25T13:32:33.713Z,101343.56
2023-01-25T13:37:35.682Z,101332.66
2023-01-25T13:42:38.452Z,101325.09
2023-01-25T13:47:39.896Z,101322.97
2023-01-25T13:53:01.958Z,101317.69
2023-01-25T13:58:28.548Z,101312.25
2023-01-25T14:03:31.389Z,101304.88
2023-01-25T14:08:32.844Z,101300.44
2023-01-25T14:13:34.268Z,101293.91
2023-01-25T14:18:37.804Z,101279.63
2023-01-25T14:23:39.377Z,101282.78
2023-01-25T14:28:45.602Z,101276.38
2023-01-25T14:33:54.485Z,101275.31
2023-01-25T14:38:56.066Z,101272.59
2023-01-25T14:44:05.226Z,101268.16
2023-01-25T14:49:09.568Z,101259.16
2023-01-25T14:54:26.907Z,101250.28
2023-01-25T14:59:32.261Z,101251.75
2023-01-25T15:04:35.472Z,101242.94
2023-01-25T15:09:42.871Z,101237.06
2023-01-25T15:14:49.009Z,101225.69
2023-01-25T15:19:53.246Z,101209.50
2023-01-25T15:24:58.595Z,101205.06
2023-01-25T15:30:00.183Z,101191.84
2023-01-25T15:35:02.290Z,101193.53
2023-01-25T15:40:03.899Z,101186.97
2023-01-25T15:45:06.902Z,101184.03
2023-01-25T15:50:16.089Z,101177.31
2023-01-25T15:55:17.479Z,101169.97
2023-01-25T16:00:21.248Z,101167.44
2023-01-25T16:05:22.743Z,101160.28
2023-01-25T16:10:24.382Z,101146.78
2023-01-25T16:15:25.782Z,101150.63
2023-01-25T16:20:27.158Z,101146.44
2023-01-25T16:25:28.546Z,101141.16
2023-01-25T16:30:32.359Z,101141.94
2023-01-25T16:35:33.797Z,101128.31
2023-01-25T16:40:39.600Z,101108.97
2023-01-25T16:45:40.879Z,101106.25
2023-01-25T16:50:42.264Z,101107.91
2023-01-25T16:55:43.680Z,101100.75
2023-01-25T17:00:46.098Z,101100.16
2023-01-25T17:05:47.489Z,101094.28
2023-01-25T17:10:49.403Z,101093.41
2023-01-25T17:15:50.880Z,101077.66
2023-01-25T17:21:03.472Z,101069.88
2023-01-25T17:26:05.645Z,101069.91
2023-01-25T17:31:17.233Z,101062.16
2023-01-25T17:36:18.909Z,101054.72
2023-01-25T17:41:20.351Z,101053.47
2023-01-25T17:46:27.686Z,101051.38
2023-01-25T17:51:29.227Z,101047.88
2023-01-25T17:56:30.610Z,101041.97
2023-01-25T18:01:32.211Z,101034.34
2023-01-25T18:06:33.708Z,101033.50
2023-01-25T18:11:36.081Z,101028.50
2023-01-25T18:16:38.669Z,101029.53
2023-01-25T18:21:41.932Z,101019.00
2023-01-25T18:26:43.340Z,101018.56
2023-01-25T18:31:45.395Z,101004.72
2023-01-25T18:36:48.203Z,101018.59
2023-01-25T18:41:49.787Z,101016.50
2023-01-25T18:46:51.222Z,101010.97
2023-01-25T18:52:08.745Z,101015.00
2023-01-25T18:57:13.161Z,100999.47
2023-01-25T19:02:15.768Z,100997.56
2023-01-25T19:07:17.200Z,100979.25
2023-01-25T19:12:18.596Z,100963.91
2023-01-25T19:17:19.992Z,100958.25
2023-01-25T19:22:21.460Z,100942.91
2023-01-25T19:27:22.858Z,100942.25
2023-01-25T19:32:24.238Z,100937.16
2023-01-25T19:37:25.630Z,100930.69
2023-01-25T19:42:27.015Z,100933.25
2023-01-25T19:47:28.397Z,100913.69
2023-01-25T19:52:29.793Z,100913.63
2023-01-25T19:57:32.499Z,100911.34
2023-01-25T20:02:33.926Z,100918.53
2023-01-25T20:07:35.334Z,100913.91
2023-01-25T20:12:36.718Z,100912.78
2023-01-25T20:17:38.101Z,100904.59
2023-01-25T20:22:39.505Z,100906.53
2023-01-25T20:27:40.956Z,100900.47
2023-01-25T20:32:42.360Z,100896.84
2023-01-25T20:37:43.781Z,100890.91
2023-01-25T20:42:45.163Z,100889.22
2023-01-25T20:47:46.565Z,100886.78
2023-01-25T20:52:48.004Z,100872.28
2023-01-25T20:57:49.430Z,100865.91
2023-01-25T21:02:50.886Z,100854.53
2023-01-25T21:07:52.282Z,100841.56
2023-01-25T21:12:53.687Z,100842.22
2023-01-25T21:17:55.073Z,100840.13
2023-01-25T21:22:56.581Z,100830.19
2023-01-25T21:27:58.150Z,100834.81
2023-01-25T21:32:59.545Z,100823.72
2023-01-25T21:38:00.919Z,100825.59
2023-01-25T21:43:02.297Z,100812.94
2023-01-25T21:48:03.727Z,100815.41
2023-01-25T21:53:05.102Z,100805.88
2023-01-25T21:58:06.484Z,100804.19
2023-01-25T22:03:08.141Z,100812.31
2023-01-25T22:08:10.571Z,100809.75
2023-01-25T22:13:13.152Z,100806.03
2023-01-25T22:18:14.683Z,100814.06
2023-01-25T22:23:16.058Z,100802.44
2023-01-25T22:28:17.425Z,100789.16
2023-01-25T22:33:21.326Z,100789.16
2023-01-25T22:38:22.726Z,100771.78
2023-01-25T22:43:24.112Z,100768.34
2023-01-25T22:48:25.495Z,100771.22
2023-01-25T22:53:26.874Z,100774.66
2023-01-25T22:58:28.486Z,100766.91
2023-01-25T23:03:29.992Z,100764.03
2023-01-25T23:08:33.708Z,100755.53
2023-01-25T23:13:36.959Z,100746.47
2023-01-25T23:18:50.158Z,100750.25
2023-01-25T23:23:51.755Z,100740.25
2023-01-25T23:28:54.228Z,100725.44
2023-01-25T23:33:58.133Z,100714.91
2023-01-25T23:38:59.563Z,100703.19
2023-01-25T23:44:01.749Z,100696.53
2023-01-25T23:49:03.161Z,100693.94
2023-01-25T23:54:04.658Z,100690.75
2023-01-25T23:59:07.614Z,100692.03
